sensor_id;sensor_type;location;lat;lon;timestamp;temperature;humidity
15044;DHT22;7619;48.562;8.910;2022-11-15T00:01:26;4.80;99.90
15044;DHT22;7619;48.562;8.910;2022-11-15T00:03:55;4.80;99.90
15044;DHT22;7619;48.562;8.910;2022-11-15T00:06:24;5.00;99.90
15044;DHT22;7619;48.562;8.910;2022-11-15T00:08:53;5.00;99.90
15044;DHT22;7619;48.562;8.910;2022-11-15T00:11:22;4.90;99.90
15044;DHT22;7619;48.562;8.910;2022-11-15T00:13:54;5.10;99.90
15044;DHT22;7619;48.562;8.910;2022-11-15T00:16:22;5.30;99.90
15044;DHT22;7619;48.562;8.910;2022-11-15T00:18:51;5.20;99.90
15044;DHT22;7619;48.562;8.910;2022-11-15T00:21:20;4.80;99.90
15044;DHT22;7619;48.562;8.910;2022-11-15T00:23:49;4.80;99.90
15044;DHT22;7619;48.562;8.910;2022-11-15T00:26:18;4.60;99.90
15044;DHT22;7619;48.562;8.910;2022-11-15T00:28:47;4.40;99.90
15044;DHT22;7619;48.562;8.910;2022-11-15T00:31:16;4.30;99.90
15044;DHT22;7619;48.562;8.910;2022-11-15T00:33:45;4.20;99.90
15044;DHT22;7619;48.562;8.910;2022-11-15T00:36:14;4.10;99.90
15044;DHT22;7619;48.562;8.910;2022-11-15T00:38:43;4.10;99.90
15044;DHT22;7619;48.562;8.910;2022-11-15T00:41:12;4.10;99.90
15044;DHT22;7619;48.562;8.910;2022-11-15T00:43:41;4.20;99.90
15044;DHT22;7619;48.562;8.910;2022-11-15T00:46:11;4.30;99.90
15044;DHT22;7619;48.562;8.910;2022-11-15T00:48:40;4.30;99.90
15044;DHT22;7619;48.562;8.910;2022-11-15T00:51:09;4.40;99.90
15044;DHT22;7619;48.562;8.910;2022-11-15T00:53:38;4.40;99.90
15044;DHT22;7619;48.562;8.910;2022-11-15T00:56:07;4.40;99.90
15044;DHT22;7619;48.562;8.910;2022-11-15T00:58:36;4.40;99.90
15044;DHT22;7619;48.562;8.910;2022-11-15T01:01:10;4.40;99.90
15044;DHT22;7619;48.562;8.910;2022-11-15T01:03:40;4.30;99.90
15044;DHT22;7619;48.562;8.910;2022-11-15T01:06:10;4.20;99.90
15044;DHT22;7619;48.562;8.910;2022-11-15T01:08:40;4.10;99.90
15044;DHT22;7619;48.562;8.910;2022-11-15T01:11:11;4.00;99.90
15044;DHT22;7619;48.562;8.910;2022-11-15T01:13:40;4.00;99.90
15044;DHT22;7619;48.562;8.910;2022-11-15T01:16:12;4.00;99.90
15044;DHT22;7619;48.562;8.910;2022-11-15T01:18:42;4.00;99.90
15044;DHT22;7619;48.562;8.910;2022-11-15T01:21:12;3.90;99.90
15044;DHT22;7619;48.562;8.910;2022-11-15T01:23:42;4.00;99.90
15044;DHT22;7619;48.562;8.910;2022-11-15T01:26:14;3.90;99.90
15044;DHT22;7619;48.562;8.910;2022-11-15T01:28:43;3.80;99.90
15044;DHT22;7619;48.562;8.910;2022-11-15T01:31:15;4.00;99.90
15044;DHT22;7619;48.562;8.910;2022-11-15T01:33:45;3.90;99.90
15044;DHT22;7619;48.562;8.910;2022-11-15T01:36:16;3.90;99.90
15044;DHT22;7619;48.562;8.910;2022-11-15T01:38:45;3.70;99.90
15044;DHT22;7619;48.562;8.910;2022-11-15T01:41:19;3.60;99.90
15044;DHT22;7619;48.562;8.910;2022-11-15T01:43:51;3.40;99.90
15044;DHT22;7619;48.562;8.910;2022-11-15T01:46:30;3.30;99.90
15044;DHT22;7619;48.562;8.910;2022-11-15T01:49:03;3.30;99.90
15044;DHT22;7619;48.562;8.910;2022-11-15T01:51:34;3.30;99.90
15044;DHT22;7619;48.562;8.910;2022-11-15T01:54:05;3.40;99.90
15044;DHT22;7619;48.562;8.910;2022-11-15T01:56:38;3.40;99.90
15044;DHT22;7619;48.562;8.910;2022-11-15T01:59:08;3.40;99.90
15044;DHT22;7619;48.562;8.910;2022-11-15T02:01:38;3.40;99.90
15044;DHT22;7619;48.562;8.910;2022-11-15T02:04:10;3.40;99.90
15044;DHT22;7619;48.562;8.910;2022-11-15T02:06:41;3.40;99.90
15044;DHT22;7619;48.562;8.910;2022-11-15T02:09:12;3.40;99.90
15044;DHT22;7619;48.562;8.910;2022-11-15T02:11:41;3.50;99.90
15044;DHT22;7619;48.562;8.910;2022-11-15T02:14:11;3.50;99.90
15044;DHT22;7619;48.562;8.910;2022-11-15T02:16:45;3.60;99.90
15044;DHT22;7619;48.562;8.910;2022-11-15T02:19:21;3.60;99.90
15044;DHT22;7619;48.562;8.910;2022-11-15T02:21:53;3.60;99.90
15044;DHT22;7619;48.562;8.910;2022-11-15T02:30:40;3.80;99.90
15044;DHT22;7619;48.562;8.910;2022-11-15T02:35:57;3.60;99.90
15044;DHT22;7619;48.562;8.910;2022-11-15T02:38:31;3.50;99.90
15044;DHT22;7619;48.562;8.910;2022-11-15T02:41:02;3.40;99.90
15044;DHT22;7619;48.562;8.910;2022-11-15T02:43:35;3.40;99.90
15044;DHT22;7619;48.562;8.910;2022-11-15T02:46:24;3.50;99.90
15044;DHT22;7619;48.562;8.910;2022-11-15T02:48:55;3.50;99.90
15044;DHT22;7619;48.562;8.910;2022-11-15T02:51:25;3.40;99.90
15044;DHT22;7619;48.562;8.910;2022-11-15T02:53:54;3.40;99.90
15044;DHT22;7619;48.562;8.910;2022-11-15T02:56:22;3.30;99.90
15044;DHT22;7619;48.562;8.910;2022-11-15T02:59:18;3.10;99.90
15044;DHT22;7619;48.562;8.910;2022-11-15T03:01:56;3.10;99.90
15044;DHT22;7619;48.562;8.910;2022-11-15T03:04:29;3.20;99.90
15044;DHT22;7619;48.562;8.910;2022-11-15T03:07:03;3.30;99.90
15044;DHT22;7619;48.562;8.910;2022-11-15T03:09:34;3.40;99.90
15044;DHT22;7619;48.562;8.910;2022-11-15T03:12:07;3.50;99.90
15044;DHT22;7619;48.562;8.910;2022-11-15T03:14:39;3.60;99.90
15044;DHT22;7619;48.562;8.910;2022-11-15T03:17:11;3.70;99.90
15044;DHT22;7619;48.562;8.910;2022-11-15T03:19:44;3.70;99.90
15044;DHT22;7619;48.562;8.910;2022-11-15T03:22:15;3.60;99.90
15044;DHT22;7619;48.562;8.910;2022-11-15T03:24:47;3.60;99.90
15044;DHT22;7619;48.562;8.910;2022-11-15T03:27:21;3.50;99.90
15044;DHT22;7619;48.562;8.910;2022-11-15T03:29:51;3.50;99.90
15044;DHT22;7619;48.562;8.910;2022-11-15T03:32:22;3.50;99.90
15044;DHT22;7619;48.562;8.910;2022-11-15T03:34:55;3.60;99.90
15044;DHT22;7619;48.562;8.910;2022-11-15T03:37:27;3.70;99.90
15044;DHT22;7619;48.562;8.910;2022-11-15T03:39:57;3.80;99.90
15044;DHT22;7619;48.562;8.910;2022-11-15T03:42:29;3.90;99.90
15044;DHT22;7619;48.562;8.910;2022-11-15T03:45:01;3.90;99.90
15044;DHT22;7619;48.562;8.910;2022-11-15T03:50:11;3.80;99.90
15044;DHT22;7619;48.562;8.910;2022-11-15T03:52:42;3.90;99.90
15044;DHT22;7619;48.562;8.910;2022-11-15T03:55:14;3.80;99.90
15044;DHT22;7619;48.562;8.910;2022-11-15T03:57:44;3.80;99.90
15044;DHT22;7619;48.562;8.910;2022-11-15T04:00:14;3.70;99.90
15044;DHT22;7619;48.562;8.910;2022-11-15T04:02:43;3.70;99.90
15044;DHT22;7619;48.562;8.910;2022-11-15T04:05:12;3.70;99.90
15044;DHT22;7619;48.562;8.910;2022-11-15T04:07:41;3.70;99.90
15044;DHT22;7619;48.562;8.910;2022-11-15T04:10:11;3.80;99.90
15044;DHT22;7619;48.562;8.910;2022-11-15T04:12:43;3.70;99.90
15044;DHT22;7619;48.562;8.910;2022-11-15T04:15:15;3.70;99.90
15044;DHT22;7619;48.562;8.910;2022-11-15T04:17:45;3.80;99.90
15044;DHT22;7619;48.562;8.910;2022-11-15T04:20:17;4.00;99.90
15044;DHT22;7619;48.562;8.910;2022-11-15T04:23:06;4.00;99.90
15044;DHT22;7619;48.562;8.910;2022-11-15T04:25:54;4.00;99.90
15044;DHT22;7619;48.562;8.910;2022-11-15T04:28:24;4.00;99.90
15044;DHT22;7619;48.562;8.910;2022-11-15T04:30:53;4.00;99.90
15044;DHT22;7619;48.562;8.910;2022-11-15T04:33:23;4.00;99.90
15044;DHT22;7619;48.562;8.910;2022-11-15T04:35:52;3.90;99.90
15044;DHT22;7619;48.562;8.910;2022-11-15T04:38:40;3.90;99.90
15044;DHT22;7619;48.562;8.910;2022-11-15T04:41:09;3.90;99.90
15044;DHT22;7619;48.562;8.910;2022-11-15T04:43:38;3.90;99.90
15044;DHT22;7619;48.562;8.910;2022-11-15T04:46:07;3.80;99.90
15044;DHT22;7619;48.562;8.910;2022-11-15T04:48:36;3.80;99.90
15044;DHT22;7619;48.562;8.910;2022-11-15T04:51:05;3.80;99.90
15044;DHT22;7619;48.562;8.910;2022-11-15T04:53:34;3.80;99.90
15044;DHT22;7619;48.562;8.910;2022-11-15T04:56:03;3.80;99.90
15044;DHT22;7619;48.562;8.910;2022-11-15T04:58:32;3.90;99.90
15044;DHT22;7619;48.562;8.910;2022-11-15T05:01:07;3.90;99.90
15044;DHT22;7619;48.562;8.910;2022-11-15T05:03:36;3.90;99.90
15044;DHT22;7619;48.562;8.910;2022-11-15T05:06:23;3.90;99.90
15044;DHT22;7619;48.562;8.910;2022-11-15T05:08:52;4.20;99.90
15044;DHT22;7619;48.562;8.910;2022-11-15T05:11:21;4.20;99.90
15044;DHT22;7619;48.562;8.910;2022-11-15T05:13:51;4.10;99.90
15044;DHT22;7619;48.562;8.910;2022-11-15T05:16:20;4.10;99.90
15044;DHT22;7619;48.562;8.910;2022-11-15T05:18:52;4.00;99.90
15044;DHT22;7619;48.562;8.910;2022-11-15T05:21:21;3.90;99.90
15044;DHT22;7619;48.562;8.910;2022-11-15T05:23:50;3.90;99.90
15044;DHT22;7619;48.562;8.910;2022-11-15T05:26:19;3.80;99.90
15044;DHT22;7619;48.562;8.910;2022-11-15T05:28:52;3.90;99.90
15044;DHT22;7619;48.562;8.910;2022-11-15T05:31:23;4.10;99.90
15044;DHT22;7619;48.562;8.910;2022-11-15T05:33:53;4.00;99.90
15044;DHT22;7619;48.562;8.910;2022-11-15T05:36:27;3.90;99.90
15044;DHT22;7619;48.562;8.910;2022-11-15T05:38:56;3.80;99.90
15044;DHT22;7619;48.562;8.910;2022-11-15T05:41:29;3.70;99.90
15044;DHT22;7619;48.562;8.910;2022-11-15T05:43:59;3.70;99.90
15044;DHT22;7619;48.562;8.910;2022-11-15T05:46:29;3.70;99.90
15044;DHT22;7619;48.562;8.910;2022-11-15T05:48:58;3.70;99.90
15044;DHT22;7619;48.562;8.910;2022-11-15T05:51:29;3.70;99.90
15044;DHT22;7619;48.562;8.910;2022-11-15T05:56:36;3.80;99.90
15044;DHT22;7619;48.562;8.910;2022-11-15T05:59:05;3.80;99.90
15044;DHT22;7619;48.562;8.910;2022-11-15T06:01:35;3.70;99.90
15044;DHT22;7619;48.562;8.910;2022-11-15T06:04:04;3.70;99.90
15044;DHT22;7619;48.562;8.910;2022-11-15T06:13:58;3.60;99.90
15044;DHT22;7619;48.562;8.910;2022-11-15T06:16:27;3.60;99.90
15044;DHT22;7619;48.562;8.910;2022-11-15T06:18:56;3.70;99.90
15044;DHT22;7619;48.562;8.910;2022-11-15T06:21:25;3.70;99.90
15044;DHT22;7619;48.562;8.910;2022-11-15T06:23:55;3.70;99.90
15044;DHT22;7619;48.562;8.910;2022-11-15T06:26:24;3.70;99.90
15044;DHT22;7619;48.562;8.910;2022-11-15T06:28:53;3.80;99.90
15044;DHT22;7619;48.562;8.910;2022-11-15T06:31:22;3.80;99.90
15044;DHT22;7619;48.562;8.910;2022-11-15T06:33:51;3.90;99.90
15044;DHT22;7619;48.562;8.910;2022-11-15T06:36:19;3.90;99.90
15044;DHT22;7619;48.562;8.910;2022-11-15T06:41:16;4.10;99.90
15044;DHT22;7619;48.562;8.910;2022-11-15T06:43:46;4.20;99.90
15044;DHT22;7619;48.562;8.910;2022-11-15T06:48:43;4.40;99.90
15044;DHT22;7619;48.562;8.910;2022-11-15T06:51:11;4.50;99.90
15044;DHT22;7619;48.562;8.910;2022-11-15T06:53:40;4.60;99.90
15044;DHT22;7619;48.562;8.910;2022-11-15T06:56:09;4.70;99.90
15044;DHT22;7619;48.562;8.910;2022-11-15T06:58:38;4.80;99.90
15044;DHT22;7619;48.562;8.910;2022-11-15T07:01:09;4.80;99.90
15044;DHT22;7619;48.562;8.910;2022-11-15T07:08:36;4.80;99.90
15044;DHT22;7619;48.562;8.910;2022-11-15T07:11:07;4.70;99.90
15044;DHT22;7619;48.562;8.910;2022-11-15T07:13:36;4.70;99.90
15044;DHT22;7619;48.562;8.910;2022-11-15T07:16:07;4.80;99.90
15044;DHT22;7619;48.562;8.910;2022-11-15T07:18:37;4.90;99.90
15044;DHT22;7619;48.562;8.910;2022-11-15T07:21:08;5.10;99.90
15044;DHT22;7619;48.562;8.910;2022-11-15T07:23:38;5.20;99.90
15044;DHT22;7619;48.562;8.910;2022-11-15T07:26:07;5.50;99.90
15044;DHT22;7619;48.562;8.910;2022-11-15T07:28:36;5.50;99.90
15044;DHT22;7619;48.562;8.910;2022-11-15T07:33:42;6.10;99.90
15044;DHT22;7619;48.562;8.910;2022-11-15T07:36:11;6.10;99.90
15044;DHT22;7619;48.562;8.910;2022-11-15T07:38:40;6.10;99.90
15044;DHT22;7619;48.562;8.910;2022-11-15T07:41:09;6.20;99.90
15044;DHT22;7619;48.562;8.910;2022-11-15T07:43:38;6.30;99.90
15044;DHT22;7619;48.562;8.910;2022-11-15T07:46:08;6.30;99.90
15044;DHT22;7619;48.562;8.910;2022-11-15T07:48:37;6.30;99.90
15044;DHT22;7619;48.562;8.910;2022-11-15T07:51:09;6.30;99.90
15044;DHT22;7619;48.562;8.910;2022-11-15T07:53:38;6.30;99.90
15044;DHT22;7619;48.562;8.910;2022-11-15T07:56:07;6.40;99.90
15044;DHT22;7619;48.562;8.910;2022-11-15T07:58:36;6.40;99.90
15044;DHT22;7619;48.562;8.910;2022-11-15T08:01:06;6.40;99.90
15044;DHT22;7619;48.562;8.910;2022-11-15T08:03:36;6.30;99.90
15044;DHT22;7619;48.562;8.910;2022-11-15T08:06:05;6.40;99.90
15044;DHT22;7619;48.562;8.910;2022-11-15T08:16:09;6.70;99.90
15044;DHT22;7619;48.562;8.910;2022-11-15T08:18:39;6.90;99.90
15044;DHT22;7619;48.562;8.910;2022-11-15T08:21:10;7.10;99.90
15044;DHT22;7619;48.562;8.910;2022-11-15T08:28:37;7.90;99.90
15044;DHT22;7619;48.562;8.910;2022-11-15T08:33:36;8.30;99.90
15044;DHT22;7619;48.562;8.910;2022-11-15T08:38:33;9.80;99.90
15044;DHT22;7619;48.562;8.910;2022-11-15T08:43:41;10.70;99.90
15044;DHT22;7619;48.562;8.910;2022-11-15T08:46:12;10.90;99.90
15044;DHT22;7619;48.562;8.910;2022-11-15T08:48:41;10.80;99.90
15044;DHT22;7619;48.562;8.910;2022-11-15T08:51:10;10.00;99.90
15044;DHT22;7619;48.562;8.910;2022-11-15T08:56:16;9.50;99.90
15044;DHT22;7619;48.562;8.910;2022-11-15T09:01:18;9.80;99.90
15044;DHT22;7619;48.562;8.910;2022-11-15T09:03:48;9.80;99.90
15044;DHT22;7619;48.562;8.910;2022-11-15T09:06:16;9.70;99.90
15044;DHT22;7619;48.562;8.910;2022-11-15T09:11:13;10.00;99.90
15044;DHT22;7619;48.562;8.910;2022-11-15T09:13:44;10.20;99.90
15044;DHT22;7619;48.562;8.910;2022-11-15T09:18:42;10.40;99.90
15044;DHT22;7619;48.562;8.910;2022-11-15T09:21:12;10.50;99.90
15044;DHT22;7619;48.562;8.910;2022-11-15T09:23:41;10.50;99.90
15044;DHT22;7619;48.562;8.910;2022-11-15T09:31:08;10.80;99.90
15044;DHT22;7619;48.562;8.910;2022-11-15T09:33:37;11.00;99.90
15044;DHT22;7619;48.562;8.910;2022-11-15T09:44:07;11.00;99.90
15044;DHT22;7619;48.562;8.910;2022-11-15T09:46:40;11.00;99.90
15044;DHT22;7619;48.562;8.910;2022-11-15T09:49:10;11.00;99.90
15044;DHT22;7619;48.562;8.910;2022-11-15T09:51:43;10.90;99.90
15044;DHT22;7619;48.562;8.910;2022-11-15T09:56:46;11.20;99.90
15044;DHT22;7619;48.562;8.910;2022-11-15T10:02:17;11.30;99.90
15044;DHT22;7619;48.562;8.910;2022-11-15T10:04:45;11.60;99.90
15044;DHT22;7619;48.562;8.910;2022-11-15T10:09:56;11.90;99.90
15044;DHT22;7619;48.562;8.910;2022-11-15T10:15:00;12.20;99.90
15044;DHT22;7619;48.562;8.910;2022-11-15T10:20:29;12.30;99.90
15044;DHT22;7619;48.562;8.910;2022-11-15T10:23:02;12.30;99.90
15044;DHT22;7619;48.562;8.910;2022-11-15T10:25:33;12.40;99.90
15044;DHT22;7619;48.562;8.910;2022-11-15T10:28:06;12.50;1.00
15044;DHT22;7619;48.562;8.910;2022-11-15T10:30:37;12.50;99.90
15044;DHT22;7619;48.562;8.910;2022-11-15T10:36:20;12.40;99.90
15044;DHT22;7619;48.562;8.910;2022-11-15T10:41:36;12.10;99.90
15044;DHT22;7619;48.562;8.910;2022-11-15T10:44:21;12.10;1.00
15044;DHT22;7619;48.562;8.910;2022-11-15T10:47:07;12.00;29.30
15044;DHT22;7619;48.562;8.910;2022-11-15T10:49:36;12.00;99.90
15044;DHT22;7619;48.562;8.910;2022-11-15T10:52:13;11.90;99.90
15044;DHT22;7619;48.562;8.910;2022-11-15T11:02:37;11.90;99.90
15044;DHT22;7619;48.562;8.910;2022-11-15T11:05:25;12.00;1.00
15044;DHT22;7619;48.562;8.910;2022-11-15T11:07:45;12.10;46.10
15044;DHT22;7619;48.562;8.910;2022-11-15T11:13:04;12.30;99.90
15044;DHT22;7619;48.562;8.910;2022-11-15T11:15:28;12.30;1.00
15044;DHT22;7619;48.562;8.910;2022-11-15T11:18:02;12.40;99.90
15044;DHT22;7619;48.562;8.910;2022-11-15T11:20:35;12.50;1.00
15044;DHT22;7619;48.562;8.910;2022-11-15T11:23:15;12.60;1.00
15044;DHT22;7619;48.562;8.910;2022-11-15T11:28:25;12.60;1.00
15044;DHT22;7619;48.562;8.910;2022-11-15T11:31:00;12.70;40.70
15044;DHT22;7619;48.562;8.910;2022-11-15T11:33:32;12.90;1.00
15044;DHT22;7619;48.562;8.910;2022-11-15T11:38:55;12.80;1.00
15044;DHT22;7619;48.562;8.910;2022-11-15T11:44:33;13.00;1.00
15044;DHT22;7619;48.562;8.910;2022-11-15T11:49:38;13.60;1.00
15044;DHT22;7619;48.562;8.910;2022-11-15T11:52:12;13.50;1.00
15044;DHT22;7619;48.562;8.910;2022-11-15T11:54:47;13.30;99.90
15044;DHT22;7619;48.562;8.910;2022-11-15T11:57:33;13.10;99.90
15044;DHT22;7619;48.562;8.910;2022-11-15T11:59:55;13.20;99.90
15044;DHT22;7619;48.562;8.910;2022-11-15T12:02:28;13.20;99.90
15044;DHT22;7619;48.562;8.910;2022-11-15T12:05:03;13.20;99.90
15044;DHT22;7619;48.562;8.910;2022-11-15T12:07:34;13.10;99.90
15044;DHT22;7619;48.562;8.910;2022-11-15T12:10:11;13.00;99.90
15044;DHT22;7619;48.562;8.910;2022-11-15T12:12:46;13.00;1.00
15044;DHT22;7619;48.562;8.910;2022-11-15T12:15:18;13.10;1.00
15044;DHT22;7619;48.562;8.910;2022-11-15T12:20:19;13.20;1.00
15044;DHT22;7619;48.562;8.910;2022-11-15T12:22:53;13.20;99.90
15044;DHT22;7619;48.562;8.910;2022-11-15T12:36:00;13.80;94.20
15044;DHT22;7619;48.562;8.910;2022-11-15T12:38:56;13.80;1.00
15044;DHT22;7619;48.562;8.910;2022-11-15T12:41:27;13.70;99.90
15044;DHT22;7619;48.562;8.910;2022-11-15T12:43:57;13.70;1.00
15044;DHT22;7619;48.562;8.910;2022-11-15T12:49:46;13.50;99.90
15044;DHT22;7619;48.562;8.910;2022-11-15T12:55:01;13.20;1.00
15044;DHT22;7619;48.562;8.910;2022-11-15T13:03:34;13.00;1.00
15044;DHT22;7619;48.562;8.910;2022-11-15T13:08:59;12.70;1.00
15044;DHT22;7619;48.562;8.910;2022-11-15T13:11:45;12.70;99.90
15044;DHT22;7619;48.562;8.910;2022-11-15T13:14:47;12.70;1.00
15044;DHT22;7619;48.562;8.910;2022-11-15T13:20:26;12.70;99.90
15044;DHT22;7619;48.562;8.910;2022-11-15T13:23:07;12.60;1.00
15044;DHT22;7619;48.562;8.910;2022-11-15T13:25:51;12.50;25.20
15044;DHT22;7619;48.562;8.910;2022-11-15T13:28:25;12.50;1.00
15044;DHT22;7619;48.562;8.910;2022-11-15T13:30:56;12.40;99.90
15044;DHT22;7619;48.562;8.910;2022-11-15T13:36:06;12.50;99.90
15044;DHT22;7619;48.562;8.910;2022-11-15T13:38:37;12.70;99.90
15044;DHT22;7619;48.562;8.910;2022-11-15T13:41:18;12.90;99.90
15044;DHT22;7619;48.562;8.910;2022-11-15T13:43:50;13.10;99.90
15044;DHT22;7619;48.562;8.910;2022-11-15T13:46:20;13.10;1.00
15044;DHT22;7619;48.562;8.910;2022-11-15T13:48:54;13.30;1.00
15044;DHT22;7619;48.562;8.910;2022-11-15T13:51:32;13.40;1.00
15044;DHT22;7619;48.562;8.910;2022-11-15T13:54:03;13.60;1.00
15044;DHT22;7619;48.562;8.910;2022-11-15T13:56:33;13.70;99.90
15044;DHT22;7619;48.562;8.910;2022-11-15T13:59:08;13.70;1.00
15044;DHT22;7619;48.562;8.910;2022-11-15T14:01:39;13.60;1.00
15044;DHT22;7619;48.562;8.910;2022-11-15T14:04:13;13.50;99.90
15044;DHT22;7619;48.562;8.910;2022-11-15T14:06:48;13.40;63.10
15044;DHT22;7619;48.562;8.910;2022-11-15T14:09:30;13.30;1.00
15044;DHT22;7619;48.562;8.910;2022-11-15T14:17:32;13.50;1.00
15044;DHT22;7619;48.562;8.910;2022-11-15T14:19:51;13.30;99.90
15044;DHT22;7619;48.562;8.910;2022-11-15T14:22:22;13.20;1.00
15044;DHT22;7619;48.562;8.910;2022-11-15T14:31:11;13.50;67.20
15044;DHT22;7619;48.562;8.910;2022-11-15T14:33:42;13.60;1.00
15044;DHT22;7619;48.562;8.910;2022-11-15T14:36:13;13.60;1.00
15044;DHT22;7619;48.562;8.910;2022-11-15T14:38:43;13.10;1.00
15044;DHT22;7619;48.562;8.910;2022-11-15T14:41:18;12.70;1.00
15044;DHT22;7619;48.562;8.910;2022-11-15T14:43:48;12.60;99.90
15044;DHT22;7619;48.562;8.910;2022-11-15T14:48:45;12.10;99.90
15044;DHT22;7619;48.562;8.910;2022-11-15T14:51:16;12.20;99.90
15044;DHT22;7619;48.562;8.910;2022-11-15T14:56:14;12.70;99.90
15044;DHT22;7619;48.562;8.910;2022-11-15T14:58:43;12.90;99.90
15044;DHT22;7619;48.562;8.910;2022-11-15T15:03:51;12.70;99.90
15044;DHT22;7619;48.562;8.910;2022-11-15T15:08:50;12.10;1.00
15044;DHT22;7619;48.562;8.910;2022-11-15T15:11:21;11.80;1.00
15044;DHT22;7619;48.562;8.910;2022-11-15T15:13:51;11.60;99.90
15044;DHT22;7619;48.562;8.910;2022-11-15T15:16:22;11.50;99.90
15044;DHT22;7619;48.562;8.910;2022-11-15T15:18:51;11.30;99.90
15044;DHT22;7619;48.562;8.910;2022-11-15T15:21:23;11.30;99.90
15044;DHT22;7619;48.562;8.910;2022-11-15T15:23:52;11.20;99.90
15044;DHT22;7619;48.562;8.910;2022-11-15T15:26:22;11.10;99.90
15044;DHT22;7619;48.562;8.910;2022-11-15T15:33:57;11.00;99.90
15044;DHT22;7619;48.562;8.910;2022-11-15T15:36:26;11.00;99.90
15044;DHT22;7619;48.562;8.910;2022-11-15T15:38:55;10.90;99.90
15044;DHT22;7619;48.562;8.910;2022-11-15T15:41:24;10.90;99.90
15044;DHT22;7619;48.562;8.910;2022-11-15T15:43:53;10.80;99.90
15044;DHT22;7619;48.562;8.910;2022-11-15T15:46:22;10.80;99.90
15044;DHT22;7619;48.562;8.910;2022-11-15T15:48:50;10.80;99.90
15044;DHT22;7619;48.562;8.910;2022-11-15T15:51:19;10.70;99.90
15044;DHT22;7619;48.562;8.910;2022-11-15T15:53:48;10.70;99.90
15044;DHT22;7619;48.562;8.910;2022-11-15T16:03:53;10.60;99.90
15044;DHT22;7619;48.562;8.910;2022-11-15T16:06:37;10.60;99.90
15044;DHT22;7619;48.562;8.910;2022-11-15T16:09:08;10.50;99.90
15044;DHT22;7619;48.562;8.910;2022-11-15T16:11:37;10.50;99.90
15044;DHT22;7619;48.562;8.910;2022-11-15T16:14:08;10.50;99.90
15044;DHT22;7619;48.562;8.910;2022-11-15T16:16:40;10.50;99.90
15044;DHT22;7619;48.562;8.910;2022-11-15T16:19:09;10.50;99.90
15044;DHT22;7619;48.562;8.910;2022-11-15T16:21:39;10.50;99.90
15044;DHT22;7619;48.562;8.910;2022-11-15T16:24:08;10.60;99.90
15044;DHT22;7619;48.562;8.910;2022-11-15T16:26:38;10.50;99.90
15044;DHT22;7619;48.562;8.910;2022-11-15T16:29:09;10.40;99.90
15044;DHT22;7619;48.562;8.910;2022-11-15T16:31:38;10.30;99.90
15044;DHT22;7619;48.562;8.910;2022-11-15T16:36:44;10.30;99.90
15044;DHT22;7619;48.562;8.910;2022-11-15T16:39:13;10.30;99.90
15044;DHT22;7619;48.562;8.910;2022-11-15T16:46:42;10.30;99.90
15044;DHT22;7619;48.562;8.910;2022-11-15T16:54:18;10.30;99.90
15044;DHT22;7619;48.562;8.910;2022-11-15T16:56:47;10.30;99.90
15044;DHT22;7619;48.562;8.910;2022-11-15T17:01:54;10.20;99.90
15044;DHT22;7619;48.562;8.910;2022-11-15T17:04:23;10.10;99.90
15044;DHT22;7619;48.562;8.910;2022-11-15T17:06:53;10.10;99.90
15044;DHT22;7619;48.562;8.910;2022-11-15T17:12:00;10.20;99.90
15044;DHT22;7619;48.562;8.910;2022-11-15T17:14:29;10.10;99.90
15044;DHT22;7619;48.562;8.910;2022-11-15T17:16:58;10.20;99.90
15044;DHT22;7619;48.562;8.910;2022-11-15T17:21:55;10.10;99.90
15044;DHT22;7619;48.562;8.910;2022-11-15T17:24:24;10.10;99.90
15044;DHT22;7619;48.562;8.910;2022-11-15T17:29:30;10.20;99.90
15044;DHT22;7619;48.562;8.910;2022-11-15T17:31:59;10.70;99.90
15044;DHT22;7619;48.562;8.910;2022-11-15T17:39:33;11.10;99.90
15044;DHT22;7619;48.562;8.910;2022-11-15T17:42:02;10.80;99.90
15044;DHT22;7619;48.562;8.910;2022-11-15T17:44:31;10.60;99.90
15044;DHT22;7619;48.562;8.910;2022-11-15T17:54:43;9.90;99.90
15044;DHT22;7619;48.562;8.910;2022-11-15T17:59:48;9.90;99.90
15044;DHT22;7619;48.562;8.910;2022-11-15T18:02:17;9.80;99.90
15044;DHT22;7619;48.562;8.910;2022-11-15T18:07:14;9.90;99.90
15044;DHT22;7619;48.562;8.910;2022-11-15T18:09:43;9.90;99.90
15044;DHT22;7619;48.562;8.910;2022-11-15T18:12:12;9.80;99.90
15044;DHT22;7619;48.562;8.910;2022-11-15T18:14:41;9.80;99.90
15044;DHT22;7619;48.562;8.910;2022-11-15T18:17:10;9.80;99.90
15044;DHT22;7619;48.562;8.910;2022-11-15T18:19:39;9.80;99.90
15044;DHT22;7619;48.562;8.910;2022-11-15T18:22:08;9.80;99.90
15044;DHT22;7619;48.562;8.910;2022-11-15T18:24:37;9.80;99.90
15044;DHT22;7619;48.562;8.910;2022-11-15T18:32:05;9.80;99.90
15044;DHT22;7619;48.562;8.910;2022-11-15T18:37:04;9.80;99.90
15044;DHT22;7619;48.562;8.910;2022-11-15T18:39:33;9.70;99.90
15044;DHT22;7619;48.562;8.910;2022-11-15T18:42:02;9.60;99.90
15044;DHT22;7619;48.562;8.910;2022-11-15T18:46:59;9.50;99.90
15044;DHT22;7619;48.562;8.910;2022-11-15T18:51:56;9.50;99.90
15044;DHT22;7619;48.562;8.910;2022-11-15T18:54:25;9.50;99.90
15044;DHT22;7619;48.562;8.910;2022-11-15T19:01:51;9.50;99.90
15044;DHT22;7619;48.562;8.910;2022-11-15T19:11:47;9.40;99.90
15044;DHT22;7619;48.562;8.910;2022-11-15T19:14:18;9.40;99.90
15044;DHT22;7619;48.562;8.910;2022-11-15T19:19:20;9.40;99.90
15044;DHT22;7619;48.562;8.910;2022-11-15T19:24:18;9.50;99.90
15044;DHT22;7619;48.562;8.910;2022-11-15T19:29:16;9.40;99.90
15044;DHT22;7619;48.562;8.910;2022-11-15T19:34:15;9.40;99.90
15044;DHT22;7619;48.562;8.910;2022-11-15T19:36:45;9.30;99.90
15044;DHT22;7619;48.562;8.910;2022-11-15T19:39:14;9.30;99.90
15044;DHT22;7619;48.562;8.910;2022-11-15T19:41:45;9.20;99.90
15044;DHT22;7619;48.562;8.910;2022-11-15T19:44:14;9.20;99.90
15044;DHT22;7619;48.562;8.910;2022-11-15T19:46:45;9.20;99.90
15044;DHT22;7619;48.562;8.910;2022-11-15T19:49:14;9.20;99.90
15044;DHT22;7619;48.562;8.910;2022-11-15T19:59:18;9.10;99.90
15044;DHT22;7619;48.562;8.910;2022-11-15T20:04:17;9.10;99.90
15044;DHT22;7619;48.562;8.910;2022-11-15T20:06:46;9.10;99.90
15044;DHT22;7619;48.562;8.910;2022-11-15T20:09:16;9.10;99.90
15044;DHT22;7619;48.562;8.910;2022-11-15T20:14:13;9.00;99.90
15044;DHT22;7619;48.562;8.910;2022-11-15T20:19:10;8.90;99.90
15044;DHT22;7619;48.562;8.910;2022-11-15T20:21:42;9.00;99.90
15044;DHT22;7619;48.562;8.910;2022-11-15T20:26:39;9.10;99.90
15044;DHT22;7619;48.562;8.910;2022-11-15T20:29:09;9.10;99.90
15044;DHT22;7619;48.562;8.910;2022-11-15T20:36:35;9.10;99.90
15044;DHT22;7619;48.562;8.910;2022-11-15T20:39:04;9.20;99.90
15044;DHT22;7619;48.562;8.910;2022-11-15T20:44:01;9.10;99.90
15044;DHT22;7619;48.562;8.910;2022-11-15T20:48:58;9.10;99.90
15044;DHT22;7619;48.562;8.910;2022-11-15T20:51:27;9.10;99.90
15044;DHT22;7619;48.562;8.910;2022-11-15T20:56:24;9.00;99.90
15044;DHT22;7619;48.562;8.910;2022-11-15T20:58:53;9.10;99.90
15044;DHT22;7619;48.562;8.910;2022-11-15T21:03:52;9.10;99.90
15044;DHT22;7619;48.562;8.910;2022-11-15T21:06:22;9.00;99.90
15044;DHT22;7619;48.562;8.910;2022-11-15T21:11:38;8.90;99.90
15044;DHT22;7619;48.562;8.910;2022-11-15T21:24:19;9.00;99.90
15044;DHT22;7619;48.562;8.910;2022-11-15T21:26:48;9.00;99.90
15044;DHT22;7619;48.562;8.910;2022-11-15T21:29:17;10.10;99.90